This is the latest recevied weather packets stored in our database for station/object HA2SKA-1. If no packets are shown the sender has not sent any weather packets the latest 10 day(s).
| Time | Temp. | Humidity | Pressure | Rain* | Wind** | Luminosity | Snow |
|---|---|---|---|---|---|---|---|
| 1777659363 | 12.22° C | 53% | 1026.8 hPa | - | - | - | - |
| 1777658463 | 14.44° C | 47% | 1026.8 hPa | - | - | - | - |
| 1777657563 | 15.56° C | 44% | 1026.7 hPa | - | - | - | - |
| 1777656662 | 17.78° C | 36% | 1026.6 hPa | - | - | - | - |
| 1777655762 | 17.78° C | 35% | 1026.6 hPa | - | - | - | - |
| 1777654862 | 18.33° C | 34% | 1026.6 hPa | - | - | - | - |
| 1777653962 | 17.78° C | 35% | 1026.8 hPa | - | - | - | - |
| 1777653062 | 17.78° C | 33% | 1026.7 hPa | - | - | - | - |
| 1777652162 | 17.78° C | 34% | 1026.8 hPa | - | - | - | - |
| 1777651262 | 18.33° C | 33% | 1026.8 hPa | - | - | - | - |
| 1777650362 | 18.89° C | 31% | 1026.9 hPa | - | - | - | - |
| 1777649462 | 18.89° C | 30% | 1027.1 hPa | - | - | - | - |
| 1777647661 | 18.89° C | 28% | 1027.1 hPa | - | - | - | - |
| 1777646761 | 19.44° C | 26% | 1027.1 hPa | - | - | - | - |
| 1777645861 | 18.89° C | 26% | 1027.1 hPa | - | - | - | - |
| 1777644961 | 18.33° C | 26% | 1027.2 hPa | - | - | - | - |
| 1777644061 | 19.44° C | 26% | 1027.2 hPa | - | - | - | - |
| 1777643161 | 19.44° C | 24% | 1027.3 hPa | - | - | - | - |
| 1777642261 | 19.44° C | 24% | 1027.4 hPa | - | - | - | - |
| 1777641361 | 18.89° C | 25% | 1027.7 hPa | - | - | - | - |
| 1777640461 | 20° C | 25% | 1027.8 hPa | - | - | - | - |
| 1777639561 | 19.44° C | 26% | 1027.9 hPa | - | - | - | - |
| 1777638660 | 19.44° C | 23% | 1028.1 hPa | - | - | - | - |
| 1777637760 | 17.78° C | 24% | 1028.3 hPa | - | - | - | - |
| 1777636860 | 18.33° C | 23% | 1028.5 hPa | - | - | - | - |
* Rain since midnight (hover to see other rain measurements)
** Current wind speed in m/s (hover to see current wind gust speed)